sensor_id;sensor_type;location;lat;lon;timestamp;P1;durP1;ratioP1;P2;durP2;ratioP2
73113;SDS011;61301;51.956;5.876;2023-04-06T00:01:40;4.07;;;2.90;;
73113;SDS011;61301;51.956;5.876;2023-04-06T00:04:06;4.95;;;3.10;;
73113;SDS011;61301;51.956;5.876;2023-04-06T00:06:32;2.95;;;2.35;;
73113;SDS011;61301;51.956;5.876;2023-04-06T00:08:59;4.30;;;2.78;;
73113;SDS011;61301;51.956;5.876;2023-04-06T00:11:26;5.25;;;2.78;;
73113;SDS011;61301;51.956;5.876;2023-04-06T00:13:52;5.95;;;3.08;;
73113;SDS011;61301;51.956;5.876;2023-04-06T00:16:19;7.38;;;4.43;;
73113;SDS011;61301;51.956;5.876;2023-04-06T00:18:45;5.70;;;3.83;;
73113;SDS011;61301;51.956;5.876;2023-04-06T00:21:11;4.88;;;3.25;;
73113;SDS011;61301;51.956;5.876;2023-04-06T00:23:39;3.67;;;2.90;;
73113;SDS011;61301;51.956;5.876;2023-04-06T00:26:05;5.45;;;3.42;;
73113;SDS011;61301;51.956;5.876;2023-04-06T00:28:31;3.13;;;2.20;;
73113;SDS011;61301;51.956;5.876;2023-04-06T00:30:57;4.80;;;2.40;;
73113;SDS011;61301;51.956;5.876;2023-04-06T00:33:23;4.15;;;2.60;;
73113;SDS011;61301;51.956;5.876;2023-04-06T00:35:49;2.63;;;1.90;;
73113;SDS011;61301;51.956;5.876;2023-04-06T00:38:15;3.70;;;2.20;;
73113;SDS011;61301;51.956;5.876;2023-04-06T00:40:42;2.50;;;2.00;;
73113;SDS011;61301;51.956;5.876;2023-04-06T00:43:11;3.03;;;2.10;;
73113;SDS011;61301;51.956;5.876;2023-04-06T00:45:37;3.42;;;2.40;;
73113;SDS011;61301;51.956;5.876;2023-04-06T00:48:05;3.33;;;2.42;;
73113;SDS011;61301;51.956;5.876;2023-04-06T00:50:32;4.53;;;2.70;;
73113;SDS011;61301;51.956;5.876;2023-04-06T00:52:58;4.32;;;2.60;;
73113;SDS011;61301;51.956;5.876;2023-04-06T00:55:29;3.78;;;2.38;;
73113;SDS011;61301;51.956;5.876;2023-04-06T00:57:57;3.70;;;2.78;;
73113;SDS011;61301;51.956;5.876;2023-04-06T01:00:25;3.75;;;2.45;;
73113;SDS011;61301;51.956;5.876;2023-04-06T01:02:55;3.72;;;1.92;;
73113;SDS011;61301;51.956;5.876;2023-04-06T01:05:28;4.47;;;3.15;;
73113;SDS011;61301;51.956;5.876;2023-04-06T01:07:57;3.28;;;2.38;;
73113;SDS011;61301;51.956;5.876;2023-04-06T01:10:27;2.67;;;2.00;;
73113;SDS011;61301;51.956;5.876;2023-04-06T01:13:11;2.65;;;2.20;;
73113;SDS011;61301;51.956;5.876;2023-04-06T01:15:51;2.38;;;1.88;;
73113;SDS011;61301;51.956;5.876;2023-04-06T01:18:27;3.03;;;1.92;;
73113;SDS011;61301;51.956;5.876;2023-04-06T01:21:03;3.78;;;2.92;;
73113;SDS011;61301;51.956;5.876;2023-04-06T01:23:29;4.80;;;3.10;;
73113;SDS011;61301;51.956;5.876;2023-04-06T01:25:55;3.42;;;2.45;;
73113;SDS011;61301;51.956;5.876;2023-04-06T01:28:21;2.55;;;2.00;;
73113;SDS011;61301;51.956;5.876;2023-04-06T01:31:00;3.60;;;2.50;;
73113;SDS011;61301;51.956;5.876;2023-04-06T01:33:52;4.25;;;2.10;;
73113;SDS011;61301;51.956;5.876;2023-04-06T01:36:22;2.58;;;1.90;;
73113;SDS011;61301;51.956;5.876;2023-04-06T01:38:57;3.10;;;2.10;;
73113;SDS011;61301;51.956;5.876;2023-04-06T01:41:30;3.22;;;2.20;;
73113;SDS011;61301;51.956;5.876;2023-04-06T01:43:56;4.00;;;2.08;;
73113;SDS011;61301;51.956;5.876;2023-04-06T01:46:26;3.70;;;2.90;;
73113;SDS011;61301;51.956;5.876;2023-04-06T01:48:52;4.10;;;2.72;;
73113;SDS011;61301;51.956;5.876;2023-04-06T01:51:38;3.17;;;2.13;;
73113;SDS011;61301;51.956;5.876;2023-04-06T01:54:08;5.20;;;2.63;;
73113;SDS011;61301;51.956;5.876;2023-04-06T01:56:55;2.63;;;1.60;;
73113;SDS011;61301;51.956;5.876;2023-04-06T01:59:28;4.78;;;3.20;;
73113;SDS011;61301;51.956;5.876;2023-04-06T02:01:55;3.00;;;2.40;;
73113;SDS011;61301;51.956;5.876;2023-04-06T02:04:23;3.38;;;2.20;;
73113;SDS011;61301;51.956;5.876;2023-04-06T02:06:54;2.88;;;2.28;;
73113;SDS011;61301;51.956;5.876;2023-04-06T02:09:26;2.38;;;1.77;;
73113;SDS011;61301;51.956;5.876;2023-04-06T02:11:52;2.35;;;1.75;;
73113;SDS011;61301;51.956;5.876;2023-04-06T02:14:18;3.15;;;2.10;;
73113;SDS011;61301;51.956;5.876;2023-04-06T02:16:50;3.80;;;2.30;;
73113;SDS011;61301;51.956;5.876;2023-04-06T02:19:16;3.20;;;2.38;;
73113;SDS011;61301;51.956;5.876;2023-04-06T02:21:42;2.72;;;2.08;;
73113;SDS011;61301;51.956;5.876;2023-04-06T02:24:08;2.58;;;1.67;;
73113;SDS011;61301;51.956;5.876;2023-04-06T02:26:35;5.10;;;2.97;;
73113;SDS011;61301;51.956;5.876;2023-04-06T02:29:01;3.72;;;2.65;;
73113;SDS011;61301;51.956;5.876;2023-04-06T02:31:27;2.85;;;1.92;;
73113;SDS011;61301;51.956;5.876;2023-04-06T02:33:54;3.22;;;2.03;;
73113;SDS011;61301;51.956;5.876;2023-04-06T02:36:20;2.53;;;1.85;;
73113;SDS011;61301;51.956;5.876;2023-04-06T02:38:46;2.45;;;1.80;;
73113;SDS011;61301;51.956;5.876;2023-04-06T02:41:12;2.08;;;1.60;;
73113;SDS011;61301;51.956;5.876;2023-04-06T02:43:39;2.15;;;1.70;;
73113;SDS011;61301;51.956;5.876;2023-04-06T02:46:27;2.42;;;1.70;;
73113;SDS011;61301;51.956;5.876;2023-04-06T02:48:53;2.13;;;1.58;;
73113;SDS011;61301;51.956;5.876;2023-04-06T02:51:20;2.35;;;1.67;;
73113;SDS011;61301;51.956;5.876;2023-04-06T02:53:53;2.22;;;1.80;;
73113;SDS011;61301;51.956;5.876;2023-04-06T02:56:19;2.58;;;1.95;;
73113;SDS011;61301;51.956;5.876;2023-04-06T02:58:49;2.60;;;1.70;;
73113;SDS011;61301;51.956;5.876;2023-04-06T03:01:16;2.15;;;1.30;;
73113;SDS011;61301;51.956;5.876;2023-04-06T03:03:43;3.13;;;1.92;;
73113;SDS011;61301;51.956;5.876;2023-04-06T03:06:17;3.25;;;2.10;;
73113;SDS011;61301;51.956;5.876;2023-04-06T03:08:43;2.50;;;1.83;;
73113;SDS011;61301;51.956;5.876;2023-04-06T03:11:10;2.63;;;1.90;;
73113;SDS011;61301;51.956;5.876;2023-04-06T03:13:40;3.63;;;1.70;;
73113;SDS011;61301;51.956;5.876;2023-04-06T03:16:06;2.35;;;1.58;;
73113;SDS011;61301;51.956;5.876;2023-04-06T03:18:32;2.67;;;1.70;;
73113;SDS011;61301;51.956;5.876;2023-04-06T03:20:58;3.40;;;2.50;;
73113;SDS011;61301;51.956;5.876;2023-04-06T03:23:33;4.13;;;2.75;;
73113;SDS011;61301;51.956;5.876;2023-04-06T03:26:01;2.88;;;2.00;;
73113;SDS011;61301;51.956;5.876;2023-04-06T03:28:28;2.50;;;1.83;;
73113;SDS011;61301;51.956;5.876;2023-04-06T03:31:03;2.20;;;1.90;;
73113;SDS011;61301;51.956;5.876;2023-04-06T03:33:56;2.47;;;2.10;;
73113;SDS011;61301;51.956;5.876;2023-04-06T03:36:27;5.57;;;3.95;;
73113;SDS011;61301;51.956;5.876;2023-04-06T03:38:55;6.45;;;3.58;;
73113;SDS011;61301;51.956;5.876;2023-04-06T03:41:22;7.72;;;4.60;;
73113;SDS011;61301;51.956;5.876;2023-04-06T03:43:57;7.03;;;4.22;;
73113;SDS011;61301;51.956;5.876;2023-04-06T03:46:23;6.20;;;4.15;;
73113;SDS011;61301;51.956;5.876;2023-04-06T03:48:53;7.28;;;4.93;;
73113;SDS011;61301;51.956;5.876;2023-04-06T03:51:21;6.75;;;4.90;;
73113;SDS011;61301;51.956;5.876;2023-04-06T03:53:47;9.82;;;5.82;;
73113;SDS011;61301;51.956;5.876;2023-04-06T03:56:13;9.70;;;5.68;;
73113;SDS011;61301;51.956;5.876;2023-04-06T03:58:39;10.18;;;6.60;;
73113;SDS011;61301;51.956;5.876;2023-04-06T04:01:05;7.00;;;4.85;;
73113;SDS011;61301;51.956;5.876;2023-04-06T04:03:34;8.68;;;5.43;;
73113;SDS011;61301;51.956;5.876;2023-04-06T04:06:00;9.15;;;5.60;;
73113;SDS011;61301;51.956;5.876;2023-04-06T04:08:26;9.10;;;6.28;;
73113;SDS011;61301;51.956;5.876;2023-04-06T04:10:52;8.93;;;5.50;;
73113;SDS011;61301;51.956;5.876;2023-04-06T04:13:18;6.10;;;4.47;;
73113;SDS011;61301;51.956;5.876;2023-04-06T04:15:47;8.50;;;5.95;;
73113;SDS011;61301;51.956;5.876;2023-04-06T04:18:14;8.85;;;5.95;;
73113;SDS011;61301;51.956;5.876;2023-04-06T04:20:41;11.95;;;7.70;;
73113;SDS011;61301;51.956;5.876;2023-04-06T04:23:09;9.98;;;6.40;;
73113;SDS011;61301;51.956;5.876;2023-04-06T04:25:35;9.23;;;6.18;;
73113;SDS011;61301;51.956;5.876;2023-04-06T04:28:02;14.15;;;9.25;;
73113;SDS011;61301;51.956;5.876;2023-04-06T04:30:29;7.70;;;5.95;;
73113;SDS011;61301;51.956;5.876;2023-04-06T04:32:55;10.07;;;5.78;;
73113;SDS011;61301;51.956;5.876;2023-04-06T04:35:22;7.95;;;4.75;;
73113;SDS011;61301;51.956;5.876;2023-04-06T04:37:49;6.70;;;4.75;;
73113;SDS011;61301;51.956;5.876;2023-04-06T04:40:16;8.82;;;5.07;;
73113;SDS011;61301;51.956;5.876;2023-04-06T04:42:50;11.35;;;7.45;;
73113;SDS011;61301;51.956;5.876;2023-04-06T04:45:28;14.90;;;8.45;;
73113;SDS011;61301;51.956;5.876;2023-04-06T04:47:55;11.73;;;7.28;;
73113;SDS011;61301;51.956;5.876;2023-04-06T04:50:24;9.63;;;6.68;;
73113;SDS011;61301;51.956;5.876;2023-04-06T04:52:54;11.05;;;7.78;;
73113;SDS011;61301;51.956;5.876;2023-04-06T04:55:23;8.90;;;6.47;;
73113;SDS011;61301;51.956;5.876;2023-04-06T04:57:53;10.52;;;7.63;;
73113;SDS011;61301;51.956;5.876;2023-04-06T05:00:24;13.00;;;8.05;;
73113;SDS011;61301;51.956;5.876;2023-04-06T05:02:54;11.43;;;6.97;;
73113;SDS011;61301;51.956;5.876;2023-04-06T05:05:25;10.10;;;7.50;;
73113;SDS011;61301;51.956;5.876;2023-04-06T05:07:51;9.52;;;6.72;;
73113;SDS011;61301;51.956;5.876;2023-04-06T05:10:30;9.35;;;6.90;;
73113;SDS011;61301;51.956;5.876;2023-04-06T05:13:00;9.25;;;6.97;;
73113;SDS011;61301;51.956;5.876;2023-04-06T05:15:27;9.05;;;6.03;;
73113;SDS011;61301;51.956;5.876;2023-04-06T05:17:59;9.38;;;6.35;;
73113;SDS011;61301;51.956;5.876;2023-04-06T05:20:31;12.23;;;7.28;;
73113;SDS011;61301;51.956;5.876;2023-04-06T05:23:01;9.05;;;5.97;;
73113;SDS011;61301;51.956;5.876;2023-04-06T05:25:27;10.68;;;6.22;;
73113;SDS011;61301;51.956;5.876;2023-04-06T05:27:57;12.02;;;8.00;;
73113;SDS011;61301;51.956;5.876;2023-04-06T05:30:28;12.82;;;8.70;;
73113;SDS011;61301;51.956;5.876;2023-04-06T05:32:55;13.40;;;8.25;;
73113;SDS011;61301;51.956;5.876;2023-04-06T05:35:23;15.55;;;9.90;;
73113;SDS011;61301;51.956;5.876;2023-04-06T05:37:54;14.15;;;8.07;;
73113;SDS011;61301;51.956;5.876;2023-04-06T05:40:23;13.93;;;7.22;;
73113;SDS011;61301;51.956;5.876;2023-04-06T05:42:50;13.57;;;9.23;;
73113;SDS011;61301;51.956;5.876;2023-04-06T05:45:17;13.32;;;7.85;;
73113;SDS011;61301;51.956;5.876;2023-04-06T05:47:49;13.63;;;9.50;;
73113;SDS011;61301;51.956;5.876;2023-04-06T05:50:27;15.77;;;9.10;;
73113;SDS011;61301;51.956;5.876;2023-04-06T05:52:55;18.13;;;11.05;;
73113;SDS011;61301;51.956;5.876;2023-04-06T05:55:23;13.80;;;9.48;;
73113;SDS011;61301;51.956;5.876;2023-04-06T05:57:59;16.92;;;9.23;;
73113;SDS011;61301;51.956;5.876;2023-04-06T06:00:25;15.05;;;9.52;;
73113;SDS011;61301;51.956;5.876;2023-04-06T06:03:01;14.70;;;10.30;;
73113;SDS011;61301;51.956;5.876;2023-04-06T06:05:30;13.52;;;9.20;;
73113;SDS011;61301;51.956;5.876;2023-04-06T06:08:02;17.02;;;9.80;;
73113;SDS011;61301;51.956;5.876;2023-04-06T06:10:29;15.13;;;9.60;;
73113;SDS011;61301;51.956;5.876;2023-04-06T06:12:55;17.92;;;10.93;;
73113;SDS011;61301;51.956;5.876;2023-04-06T06:15:21;14.90;;;9.85;;
73113;SDS011;61301;51.956;5.876;2023-04-06T06:17:47;16.50;;;11.32;;
73113;SDS011;61301;51.956;5.876;2023-04-06T06:20:14;20.73;;;11.70;;
73113;SDS011;61301;51.956;5.876;2023-04-06T06:22:42;19.10;;;11.63;;
73113;SDS011;61301;51.956;5.876;2023-04-06T06:25:13;26.00;;;10.88;;
73113;SDS011;61301;51.956;5.876;2023-04-06T06:27:40;16.63;;;10.30;;
73113;SDS011;61301;51.956;5.876;2023-04-06T06:30:07;18.73;;;10.80;;
73113;SDS011;61301;51.956;5.876;2023-04-06T06:32:37;17.58;;;10.07;;
73113;SDS011;61301;51.956;5.876;2023-04-06T06:35:03;12.50;;;9.00;;
73113;SDS011;61301;51.956;5.876;2023-04-06T06:37:29;13.52;;;9.18;;
73113;SDS011;61301;51.956;5.876;2023-04-06T06:39:55;17.45;;;10.55;;
73113;SDS011;61301;51.956;5.876;2023-04-06T06:42:21;16.20;;;11.13;;
73113;SDS011;61301;51.956;5.876;2023-04-06T06:45:08;18.27;;;10.40;;
73113;SDS011;61301;51.956;5.876;2023-04-06T06:47:34;15.32;;;10.80;;
73113;SDS011;61301;51.956;5.876;2023-04-06T06:50:01;18.63;;;11.20;;
73113;SDS011;61301;51.956;5.876;2023-04-06T06:52:29;15.45;;;10.95;;
73113;SDS011;61301;51.956;5.876;2023-04-06T06:54:55;21.10;;;12.73;;
73113;SDS011;61301;51.956;5.876;2023-04-06T06:57:22;18.27;;;11.20;;
73113;SDS011;61301;51.956;5.876;2023-04-06T06:59:49;21.42;;;12.98;;
73113;SDS011;61301;51.956;5.876;2023-04-06T07:02:17;21.33;;;12.57;;
73113;SDS011;61301;51.956;5.876;2023-04-06T07:04:47;19.70;;;13.27;;
73113;SDS011;61301;51.956;5.876;2023-04-06T07:07:13;17.40;;;11.82;;
73113;SDS011;61301;51.956;5.876;2023-04-06T07:09:39;18.90;;;12.18;;
73113;SDS011;61301;51.956;5.876;2023-04-06T07:12:06;18.60;;;11.52;;
73113;SDS011;61301;51.956;5.876;2023-04-06T07:14:32;18.05;;;10.63;;
73113;SDS011;61301;51.956;5.876;2023-04-06T07:16:58;20.27;;;11.77;;
73113;SDS011;61301;51.956;5.876;2023-04-06T07:19:24;20.63;;;13.43;;
73113;SDS011;61301;51.956;5.876;2023-04-06T07:21:50;28.45;;;14.15;;
73113;SDS011;61301;51.956;5.876;2023-04-06T07:24:16;22.63;;;13.25;;
73113;SDS011;61301;51.956;5.876;2023-04-06T07:26:42;17.42;;;11.75;;
73113;SDS011;61301;51.956;5.876;2023-04-06T07:29:08;17.48;;;13.13;;
73113;SDS011;61301;51.956;5.876;2023-04-06T07:31:34;21.17;;;13.40;;
73113;SDS011;61301;51.956;5.876;2023-04-06T07:34:02;19.00;;;12.05;;
73113;SDS011;61301;51.956;5.876;2023-04-06T07:36:28;24.08;;;13.98;;
73113;SDS011;61301;51.956;5.876;2023-04-06T07:38:54;23.55;;;13.57;;
73113;SDS011;61301;51.956;5.876;2023-04-06T07:41:21;21.85;;;13.68;;
73113;SDS011;61301;51.956;5.876;2023-04-06T07:43:47;19.00;;;13.38;;
73113;SDS011;61301;51.956;5.876;2023-04-06T07:46:14;21.38;;;12.68;;
73113;SDS011;61301;51.956;5.876;2023-04-06T07:48:40;25.00;;;13.48;;
73113;SDS011;61301;51.956;5.876;2023-04-06T07:51:06;19.63;;;13.13;;
73113;SDS011;61301;51.956;5.876;2023-04-06T07:53:36;19.58;;;12.50;;
73113;SDS011;61301;51.956;5.876;2023-04-06T07:56:02;21.83;;;13.35;;
73113;SDS011;61301;51.956;5.876;2023-04-06T07:58:28;21.35;;;13.15;;
73113;SDS011;61301;51.956;5.876;2023-04-06T08:00:54;20.02;;;13.85;;
73113;SDS011;61301;51.956;5.876;2023-04-06T08:03:21;24.95;;;14.93;;
73113;SDS011;61301;51.956;5.876;2023-04-06T08:05:51;20.42;;;13.77;;
73113;SDS011;61301;51.956;5.876;2023-04-06T08:08:18;22.52;;;14.73;;
73113;SDS011;61301;51.956;5.876;2023-04-06T08:10:45;19.80;;;13.50;;
73113;SDS011;61301;51.956;5.876;2023-04-06T08:13:11;21.98;;;13.13;;
73113;SDS011;61301;51.956;5.876;2023-04-06T08:15:37;19.42;;;11.70;;
73113;SDS011;61301;51.956;5.876;2023-04-06T08:18:03;20.77;;;12.98;;
73113;SDS011;61301;51.956;5.876;2023-04-06T08:20:29;19.02;;;12.52;;
73113;SDS011;61301;51.956;5.876;2023-04-06T08:22:55;21.17;;;13.15;;
73113;SDS011;61301;51.956;5.876;2023-04-06T08:25:21;17.25;;;11.48;;
73113;SDS011;61301;51.956;5.876;2023-04-06T08:27:47;24.25;;;13.32;;
73113;SDS011;61301;51.956;5.876;2023-04-06T08:30:13;16.80;;;12.05;;
73113;SDS011;61301;51.956;5.876;2023-04-06T08:32:41;18.45;;;12.30;;
73113;SDS011;61301;51.956;5.876;2023-04-06T08:35:07;19.50;;;13.77;;
73113;SDS011;61301;51.956;5.876;2023-04-06T08:37:34;17.30;;;12.00;;
73113;SDS011;61301;51.956;5.876;2023-04-06T08:40:00;23.35;;;13.77;;
73113;SDS011;61301;51.956;5.876;2023-04-06T08:42:26;21.27;;;13.23;;
73113;SDS011;61301;51.956;5.876;2023-04-06T08:44:56;19.02;;;13.75;;
73113;SDS011;61301;51.956;5.876;2023-04-06T08:47:23;21.88;;;13.50;;
73113;SDS011;61301;51.956;5.876;2023-04-06T08:49:49;18.98;;;13.32;;
73113;SDS011;61301;51.956;5.876;2023-04-06T08:52:17;20.88;;;11.93;;
73113;SDS011;61301;51.956;5.876;2023-04-06T08:54:44;20.75;;;13.98;;
73113;SDS011;61301;51.956;5.876;2023-04-06T08:57:10;20.63;;;13.75;;
73113;SDS011;61301;51.956;5.876;2023-04-06T08:59:37;18.92;;;12.18;;
73113;SDS011;61301;51.956;5.876;2023-04-06T09:02:04;21.48;;;13.82;;
73113;SDS011;61301;51.956;5.876;2023-04-06T09:04:33;20.77;;;13.65;;
73113;SDS011;61301;51.956;5.876;2023-04-06T09:07:00;18.65;;;13.57;;
73113;SDS011;61301;51.956;5.876;2023-04-06T09:09:26;19.08;;;11.70;;
73113;SDS011;61301;51.956;5.876;2023-04-06T09:11:52;19.05;;;13.07;;
73113;SDS011;61301;51.956;5.876;2023-04-06T09:14:37;22.05;;;13.77;;
73113;SDS011;61301;51.956;5.876;2023-04-06T09:17:04;18.42;;;13.93;;
73113;SDS011;61301;51.956;5.876;2023-04-06T09:19:30;17.65;;;12.80;;
73113;SDS011;61301;51.956;5.876;2023-04-06T09:22:06;18.05;;;12.70;;
73113;SDS011;61301;51.956;5.876;2023-04-06T09:24:45;18.42;;;12.40;;
73113;SDS011;61301;51.956;5.876;2023-04-06T09:27:12;19.38;;;13.07;;
73113;SDS011;61301;51.956;5.876;2023-04-06T09:29:40;23.48;;;14.45;;
73113;SDS011;61301;51.956;5.876;2023-04-06T09:32:07;20.17;;;12.88;;
73113;SDS011;61301;51.956;5.876;2023-04-06T09:34:38;23.67;;;14.98;;
73113;SDS011;61301;51.956;5.876;2023-04-06T09:37:16;21.55;;;15.32;;
73113;SDS011;61301;51.956;5.876;2023-04-06T09:39:44;19.88;;;13.98;;
73113;SDS011;61301;51.956;5.876;2023-04-06T09:42:26;35.83;;;16.27;;
73113;SDS011;61301;51.956;5.876;2023-04-06T09:44:52;27.63;;;16.92;;
73113;SDS011;61301;51.956;5.876;2023-04-06T09:47:18;26.23;;;17.10;;
73113;SDS011;61301;51.956;5.876;2023-04-06T09:49:46;25.52;;;16.15;;
73113;SDS011;61301;51.956;5.876;2023-04-06T09:52:15;31.17;;;17.38;;
73113;SDS011;61301;51.956;5.876;2023-04-06T09:54:42;26.25;;;16.85;;
73113;SDS011;61301;51.956;5.876;2023-04-06T09:57:15;27.17;;;17.80;;
73113;SDS011;61301;51.956;5.876;2023-04-06T10:02:44;30.42;;;17.08;;
73113;SDS011;61301;51.956;5.876;2023-04-06T10:05:20;24.55;;;17.45;;
73113;SDS011;61301;51.956;5.876;2023-04-06T10:07:53;24.02;;;14.95;;
73113;SDS011;61301;51.956;5.876;2023-04-06T10:10:21;29.30;;;16.63;;
73113;SDS011;61301;51.956;5.876;2023-04-06T10:12:47;27.35;;;16.60;;
73113;SDS011;61301;51.956;5.876;2023-04-06T10:15:14;25.73;;;14.75;;
73113;SDS011;61301;51.956;5.876;2023-04-06T10:17:40;24.17;;;14.90;;
73113;SDS011;61301;51.956;5.876;2023-04-06T10:20:17;24.48;;;16.15;;
73113;SDS011;61301;51.956;5.876;2023-04-06T10:23:13;22.60;;;15.65;;
73113;SDS011;61301;51.956;5.876;2023-04-06T10:25:59;23.25;;;15.95;;
73113;SDS011;61301;51.956;5.876;2023-04-06T10:28:30;24.70;;;14.10;;
73113;SDS011;61301;51.956;5.876;2023-04-06T10:30:58;19.98;;;14.45;;
73113;SDS011;61301;51.956;5.876;2023-04-06T10:33:25;19.60;;;13.77;;
73113;SDS011;61301;51.956;5.876;2023-04-06T10:35:52;22.58;;;14.10;;
73113;SDS011;61301;51.956;5.876;2023-04-06T10:38:18;25.20;;;14.90;;
73113;SDS011;61301;51.956;5.876;2023-04-06T10:40:47;26.35;;;16.23;;
73113;SDS011;61301;51.956;5.876;2023-04-06T10:43:18;18.33;;;12.05;;
73113;SDS011;61301;51.956;5.876;2023-04-06T10:45:45;20.58;;;15.13;;
73113;SDS011;61301;51.956;5.876;2023-04-06T10:48:20;20.83;;;13.20;;
73113;SDS011;61301;51.956;5.876;2023-04-06T10:50:47;21.17;;;14.10;;
73113;SDS011;61301;51.956;5.876;2023-04-06T10:53:24;19.65;;;13.75;;
73113;SDS011;61301;51.956;5.876;2023-04-06T10:55:52;19.15;;;13.20;;
73113;SDS011;61301;51.956;5.876;2023-04-06T10:58:24;17.63;;;12.90;;
73113;SDS011;61301;51.956;5.876;2023-04-06T11:00:50;22.05;;;14.57;;
73113;SDS011;61301;51.956;5.876;2023-04-06T11:03:17;19.75;;;13.18;;
73113;SDS011;61301;51.956;5.876;2023-04-06T11:05:44;17.08;;;12.98;;
73113;SDS011;61301;51.956;5.876;2023-04-06T11:08:32;18.80;;;13.07;;
73113;SDS011;61301;51.956;5.876;2023-04-06T11:11:06;18.25;;;12.95;;
73113;SDS011;61301;51.956;5.876;2023-04-06T11:13:37;15.38;;;12.25;;
73113;SDS011;61301;51.956;5.876;2023-04-06T11:16:04;18.58;;;12.60;;
73113;SDS011;61301;51.956;5.876;2023-04-06T11:18:31;18.77;;;12.88;;
73113;SDS011;61301;51.956;5.876;2023-04-06T11:20:57;17.20;;;12.32;;
73113;SDS011;61301;51.956;5.876;2023-04-06T11:23:23;16.58;;;12.13;;
73113;SDS011;61301;51.956;5.876;2023-04-06T11:25:53;16.50;;;12.30;;
73113;SDS011;61301;51.956;5.876;2023-04-06T11:28:19;17.60;;;11.57;;
73113;SDS011;61301;51.956;5.876;2023-04-06T11:30:46;16.88;;;11.52;;
73113;SDS011;61301;51.956;5.876;2023-04-06T11:33:19;15.05;;;11.13;;
73113;SDS011;61301;51.956;5.876;2023-04-06T11:35:46;14.63;;;10.25;;
73113;SDS011;61301;51.956;5.876;2023-04-06T11:38:12;14.93;;;10.40;;
73113;SDS011;61301;51.956;5.876;2023-04-06T11:40:38;15.82;;;10.57;;
73113;SDS011;61301;51.956;5.876;2023-04-06T11:43:05;11.55;;;9.40;;
73113;SDS011;61301;51.956;5.876;2023-04-06T11:45:42;11.73;;;9.23;;
73113;SDS011;61301;51.956;5.876;2023-04-06T11:48:17;12.65;;;9.30;;
73113;SDS011;61301;51.956;5.876;2023-04-06T11:50:46;15.95;;;10.48;;
73113;SDS011;61301;51.956;5.876;2023-04-06T11:53:13;14.25;;;9.88;;
73113;SDS011;61301;51.956;5.876;2023-04-06T11:55:39;16.90;;;10.32;;
73113;SDS011;61301;51.956;5.876;2023-04-06T11:58:05;14.50;;;8.73;;
73113;SDS011;61301;51.956;5.876;2023-04-06T12:00:32;12.05;;;9.80;;
73113;SDS011;61301;51.956;5.876;2023-04-06T12:03:00;10.88;;;8.70;;
73113;SDS011;61301;51.956;5.876;2023-04-06T12:05:26;13.60;;;8.07;;
73113;SDS011;61301;51.956;5.876;2023-04-06T12:07:52;12.43;;;8.63;;
73113;SDS011;61301;51.956;5.876;2023-04-06T12:10:18;13.40;;;8.52;;
73113;SDS011;61301;51.956;5.876;2023-04-06T12:12:44;13.73;;;8.95;;
73113;SDS011;61301;51.956;5.876;2023-04-06T12:15:10;11.85;;;7.88;;
73113;SDS011;61301;51.956;5.876;2023-04-06T12:17:36;10.70;;;7.72;;
73113;SDS011;61301;51.956;5.876;2023-04-06T12:20:03;12.13;;;7.95;;
73113;SDS011;61301;51.956;5.876;2023-04-06T12:22:29;10.73;;;7.53;;
73113;SDS011;61301;51.956;5.876;2023-04-06T12:24:56;10.93;;;7.53;;
73113;SDS011;61301;51.956;5.876;2023-04-06T12:27:21;13.25;;;8.50;;
73113;SDS011;61301;51.956;5.876;2023-04-06T12:29:47;9.82;;;7.90;;
73113;SDS011;61301;51.956;5.876;2023-04-06T12:32:13;13.18;;;8.05;;
73113;SDS011;61301;51.956;5.876;2023-04-06T12:34:40;10.55;;;7.18;;
73113;SDS011;61301;51.956;5.876;2023-04-06T12:37:06;8.68;;;5.90;;
73113;SDS011;61301;51.956;5.876;2023-04-06T12:39:32;8.25;;;6.47;;
73113;SDS011;61301;51.956;5.876;2023-04-06T12:41:58;8.23;;;5.80;;
73113;SDS011;61301;51.956;5.876;2023-04-06T12:44:24;8.02;;;5.72;;
73113;SDS011;61301;51.956;5.876;2023-04-06T12:46:50;8.25;;;6.53;;
73113;SDS011;61301;51.956;5.876;2023-04-06T12:49:16;9.77;;;6.13;;
73113;SDS011;61301;51.956;5.876;2023-04-06T12:51:44;8.90;;;6.47;;
73113;SDS011;61301;51.956;5.876;2023-04-06T12:54:11;8.13;;;6.22;;
73113;SDS011;61301;51.956;5.876;2023-04-06T12:56:37;7.60;;;5.22;;
73113;SDS011;61301;51.956;5.876;2023-04-06T12:59:03;7.43;;;5.75;;
73113;SDS011;61301;51.956;5.876;2023-04-06T13:01:29;7.63;;;5.07;;
73113;SDS011;61301;51.956;5.876;2023-04-06T13:03:56;6.63;;;4.85;;
73113;SDS011;61301;51.956;5.876;2023-04-06T13:06:23;7.88;;;5.68;;
73113;SDS011;61301;51.956;5.876;2023-04-06T13:08:52;6.13;;;4.95;;
73113;SDS011;61301;51.956;5.876;2023-04-06T13:11:19;8.27;;;5.53;;
73113;SDS011;61301;51.956;5.876;2023-04-06T13:13:47;7.93;;;5.47;;
73113;SDS011;61301;51.956;5.876;2023-04-06T13:16:13;8.85;;;5.55;;
73113;SDS011;61301;51.956;5.876;2023-04-06T13:18:39;10.10;;;6.25;;
73113;SDS011;61301;51.956;5.876;2023-04-06T13:21:06;7.88;;;5.65;;
73113;SDS011;61301;51.956;5.876;2023-04-06T13:23:32;7.57;;;5.68;;
73113;SDS011;61301;51.956;5.876;2023-04-06T13:26:03;9.88;;;6.15;;
73113;SDS011;61301;51.956;5.876;2023-04-06T13:28:32;8.52;;;6.20;;
73113;SDS011;61301;51.956;5.876;2023-04-06T13:30:59;9.32;;;6.50;;
73113;SDS011;61301;51.956;5.876;2023-04-06T13:33:26;9.45;;;6.22;;
73113;SDS011;61301;51.956;5.876;2023-04-06T13:35:53;9.32;;;6.07;;
73113;SDS011;61301;51.956;5.876;2023-04-06T13:38:19;9.15;;;6.38;;
73113;SDS011;61301;51.956;5.876;2023-04-06T13:40:45;10.15;;;5.88;;
73113;SDS011;61301;51.956;5.876;2023-04-06T13:43:11;12.43;;;8.25;;
73113;SDS011;61301;51.956;5.876;2023-04-06T13:45:37;9.18;;;7.13;;
73113;SDS011;61301;51.956;5.876;2023-04-06T13:48:04;10.48;;;7.68;;
73113;SDS011;61301;51.956;5.876;2023-04-06T13:50:30;12.30;;;7.35;;
73113;SDS011;61301;51.956;5.876;2023-04-06T13:52:58;9.10;;;7.25;;
73113;SDS011;61301;51.956;5.876;2023-04-06T13:55:24;10.60;;;6.82;;
73113;SDS011;61301;51.956;5.876;2023-04-06T13:57:50;8.00;;;6.13;;
73113;SDS011;61301;51.956;5.876;2023-04-06T14:00:16;9.57;;;6.72;;
73113;SDS011;61301;51.956;5.876;2023-04-06T14:02:43;13.80;;;7.90;;
73113;SDS011;61301;51.956;5.876;2023-04-06T14:05:09;12.52;;;7.80;;
73113;SDS011;61301;51.956;5.876;2023-04-06T14:07:37;11.02;;;8.13;;
73113;SDS011;61301;51.956;5.876;2023-04-06T14:10:03;12.90;;;8.75;;
73113;SDS011;61301;51.956;5.876;2023-04-06T14:12:30;10.77;;;8.52;;
73113;SDS011;61301;51.956;5.876;2023-04-06T14:14:57;12.10;;;8.57;;
73113;SDS011;61301;51.956;5.876;2023-04-06T14:17:23;11.93;;;8.30;;
73113;SDS011;61301;51.956;5.876;2023-04-06T14:19:49;14.50;;;8.70;;
73113;SDS011;61301;51.956;5.876;2023-04-06T14:22:15;10.75;;;7.32;;
73113;SDS011;61301;51.956;5.876;2023-04-06T14:24:40;12.90;;;8.43;;
73113;SDS011;61301;51.956;5.876;2023-04-06T14:27:07;12.80;;;7.85;;
73113;SDS011;61301;51.956;5.876;2023-04-06T14:29:33;13.23;;;8.43;;
73113;SDS011;61301;51.956;5.876;2023-04-06T14:31:59;12.50;;;9.40;;
73113;SDS011;61301;51.956;5.876;2023-04-06T14:34:26;12.75;;;8.25;;
73113;SDS011;61301;51.956;5.876;2023-04-06T14:36:52;10.50;;;8.20;;
73113;SDS011;61301;51.956;5.876;2023-04-06T14:39:18;14.07;;;9.75;;
73113;SDS011;61301;51.956;5.876;2023-04-06T14:41:44;14.38;;;9.25;;
73113;SDS011;61301;51.956;5.876;2023-04-06T14:44:14;13.98;;;9.35;;
73113;SDS011;61301;51.956;5.876;2023-04-06T14:46:41;11.30;;;8.45;;